Time;durP1;ratioP1;P1;durP2;ratioP2;P2;SDS_P1;SDS_P2;PMS_P1;PMS_P2;Temp;Humidity;BMP_temperature;BMP_pressure;BME280_temperature;BME280_humidity;BME280_pressure;Samples;Min_cycle;Max_cycle;Signal;HPM_P1;HPM_P2
2023/11/01 00:01:48;;;;;;;1.10;0.70;;;21.20;57.00;;;;;;5039475;28;20038;-68
2023/11/01 00:04:14;;;;;;;0.90;0.68;;;21.20;57.00;;;;;;5038843;28;20033;-68
2023/11/01 00:06:39;;;;;;;1.00;0.75;;;21.20;57.10;;;;;;5041078;28;20499;-68
2023/11/01 00:09:05;;;;;;;1.45;0.90;;;21.20;57.50;;;;;;5040913;28;20079;-68
2023/11/01 00:11:31;;;;;;;1.10;0.80;;;21.20;57.00;;;;;;5039778;28;20548;-68
2023/11/01 00:13:56;;;;;;;1.20;0.80;;;21.20;57.00;;;;;;5039722;28;20986;-68
2023/11/01 00:16:22;;;;;;;1.20;0.85;;;21.20;57.00;;;;;;5038048;28;20175;-68
2023/11/01 00:18:48;;;;;;;1.38;0.90;;;21.20;57.00;;;;;;5038355;28;20031;-68
2023/11/01 00:21:13;;;;;;;1.58;0.85;;;21.20;57.00;;;;;;5039237;28;20121;-68
2023/11/01 00:23:39;;;;;;;1.20;0.70;;;21.20;57.00;;;;;;5038620;28;20031;-67
2023/11/01 00:26:06;;;;;;;1.05;0.80;;;21.20;57.00;;;;;;5039750;28;20028;-68
2023/11/01 00:28:33;;;;;;;1.40;0.80;;;21.10;57.00;;;;;;5038239;28;20018;-68
2023/11/01 00:30:58;;;;;;;1.20;0.90;;;21.20;57.00;;;;;;5037491;28;20025;-67
2023/11/01 00:33:24;;;;;;;0.88;0.68;;;21.20;57.00;;;;;;5038666;28;20029;-67
2023/11/01 00:35:49;;;;;;;1.35;0.80;;;21.10;57.00;;;;;;5039866;28;20072;-68
2023/11/01 00:38:23;;;;;;;1.50;0.90;;;21.10;57.00;;;;;;5039977;28;20037;-68
2023/11/01 00:40:49;;;;;;;1.17;0.80;;;21.10;57.00;;;;;;5039003;28;20449;-68
2023/11/01 00:43:15;;;;;;;1.52;0.90;;;21.20;57.00;;;;;;5038499;28;20032;-68
2023/11/01 00:45:40;;;;;;;1.20;0.77;;;21.10;57.00;;;;;;5039513;28;20421;-64
2023/11/01 00:48:06;;;;;;;1.35;0.80;;;21.10;57.00;;;;;;5038406;28;20041;-64
2023/11/01 00:50:31;;;;;;;1.30;0.88;;;21.10;57.00;;;;;;5039054;28;20028;-64
2023/11/01 00:52:57;;;;;;;0.90;0.73;;;21.10;57.00;;;;;;5038685;28;20040;-64
2023/11/01 00:55:23;;;;;;;1.20;0.80;;;21.10;57.00;;;;;;5039016;28;20071;-63
2023/11/01 00:57:49;;;;;;;1.17;0.75;;;21.10;57.00;;;;;;5039908;28;20461;-63
2023/11/01 01:00:16;;;;;;;0.98;0.70;;;21.10;57.00;;;;;;5039526;28;20127;-63
2023/11/01 01:02:42;;;;;;;1.10;0.70;;;21.10;57.00;;;;;;5037417;28;20038;-63
2023/11/01 01:05:08;;;;;;;0.82;0.70;;;21.10;57.00;;;;;;5038292;28;20383;-63
2023/11/01 01:07:34;;;;;;;1.20;0.82;;;21.10;57.00;;;;;;5040647;28;20032;-64
2023/11/01 01:10:00;;;;;;;1.52;0.75;;;21.10;57.00;;;;;;5038095;28;20024;-63
2023/11/01 01:12:26;;;;;;;1.27;0.70;;;21.10;57.00;;;;;;5038711;28;20037;-65
2023/11/01 01:14:51;;;;;;;1.75;0.90;;;21.10;56.90;;;;;;5037491;28;20104;-63
2023/11/01 01:17:17;;;;;;;1.17;0.80;;;21.10;57.00;;;;;;5035311;28;20124;-65
2023/11/01 01:19:43;;;;;;;0.85;0.75;;;21.10;57.00;;;;;;5040228;28;20029;-64
2023/11/01 01:22:08;;;;;;;0.85;0.65;;;21.10;57.00;;;;;;5039686;28;20473;-63
2023/11/01 01:24:34;;;;;;;1.00;0.70;;;21.10;57.00;;;;;;5039119;28;20029;-64
2023/11/01 01:26:59;;;;;;;1.25;0.77;;;21.10;56.90;;;;;;5036841;28;20036;-64
2023/11/01 01:29:25;;;;;;;0.88;0.68;;;21.10;56.90;;;;;;5036236;28;20455;-64
2023/11/01 01:31:51;;;;;;;0.98;0.70;;;21.00;56.90;;;;;;5036946;28;20051;-63
2023/11/01 01:34:16;;;;;;;0.80;0.65;;;21.10;57.00;;;;;;5036667;28;20477;-70
2023/11/01 01:36:42;;;;;;;1.75;0.90;;;21.00;57.00;;;;;;5037158;28;20083;-70
2023/11/01 01:39:07;;;;;;;1.50;0.80;;;21.00;56.90;;;;;;5045610;28;20111;-68
2023/11/01 01:41:33;;;;;;;0.88;0.68;;;21.00;56.90;;;;;;5037988;28;20040;-70
2023/11/01 01:43:58;;;;;;;0.95;0.68;;;21.00;56.90;;;;;;5038953;28;20139;-70
2023/11/01 01:46:27;;;;;;;0.80;0.60;;;21.00;56.90;;;;;;5036185;28;20025;-70
2023/11/01 01:48:54;;;;;;;0.82;0.70;;;21.00;56.90;;;;;;5037834;28;20036;-69
2023/11/01 01:51:19;;;;;;;0.60;0.60;;;21.00;57.00;;;;;;5039330;28;20484;-70
2023/11/01 01:53:47;;;;;;;1.23;0.80;;;21.00;56.90;;;;;;5038082;28;20029;-69
2023/11/01 01:56:14;;;;;;;1.02;0.73;;;21.00;56.90;;;;;;5037940;28;20056;-65
2023/11/01 01:58:41;;;;;;;1.00;0.70;;;21.00;56.90;;;;;;5037544;28;20108;-65
2023/11/01 02:01:07;;;;;;;1.67;0.90;;;21.00;57.40;;;;;;5038814;28;20029;-66
2023/11/01 02:03:35;;;;;;;0.80;0.70;;;21.00;57.00;;;;;;5038343;28;20086;-65
2023/11/01 02:06:02;;;;;;;1.40;0.70;;;21.00;56.90;;;;;;5038801;28;20412;-64
2023/11/01 02:08:28;;;;;;;1.02;0.70;;;21.00;56.90;;;;;;5038063;28;20028;-64
2023/11/01 02:10:54;;;;;;;0.88;0.70;;;21.00;57.00;;;;;;5037212;28;20021;-65
2023/11/01 02:13:19;;;;;;;0.63;0.60;;;21.00;57.00;;;;;;5038852;28;20025;-65
2023/11/01 02:15:45;;;;;;;1.05;0.70;;;21.00;56.90;;;;;;5037952;28;20056;-65
2023/11/01 02:18:12;;;;;;;0.95;0.73;;;21.00;57.00;;;;;;5036651;28;20099;-64
2023/11/01 02:20:40;;;;;;;1.02;0.63;;;21.00;57.00;;;;;;5040448;28;20446;-65
2023/11/01 02:23:09;;;;;;;1.00;0.73;;;21.00;56.90;;;;;;5038983;28;20502;-65
2023/11/01 02:25:35;;;;;;;;;;;21.00;57.00;;;;;;5036268;28;20033;-66
2023/11/01 02:28:02;;;;;;;0.82;0.60;;;21.00;56.90;;;;;;5039625;28;19905;-66
2023/11/01 02:30:29;;;;;;;0.80;0.60;;;21.00;56.90;;;;;;5037573;28;20110;-64
2023/11/01 02:32:55;;;;;;;0.93;0.70;;;21.00;56.90;;;;;;5036337;28;20358;-65
2023/11/01 02:35:20;;;;;;;0.82;0.70;;;20.90;56.90;;;;;;5041722;28;20083;-65
2023/11/01 02:37:49;;;;;;;0.60;0.50;;;20.90;56.90;;;;;;5042191;28;20033;-65
2023/11/01 02:40:16;;;;;;;0.68;0.60;;;20.90;56.90;;;;;;5042114;28;20032;-64
2023/11/01 02:42:43;;;;;;;0.73;0.60;;;20.90;56.90;;;;;;5043451;28;20033;-64
2023/11/01 02:45:09;;;;;;;0.63;0.63;;;21.00;57.00;;;;;;5041508;28;20091;-69
2023/11/01 02:47:42;;;;;;;0.80;0.70;;;20.90;56.90;;;;;;5042357;28;20017;-69
2023/11/01 02:50:10;;;;;;;1.08;0.80;;;20.90;56.90;;;;;;5042424;28;20036;-69
2023/11/01 02:52:37;;;;;;;1.30;0.77;;;20.90;56.90;;;;;;5041326;28;20029;-69
2023/11/01 02:55:07;;;;;;;0.70;0.60;;;20.90;56.90;;;;;;5041754;28;20029;-69
2023/11/01 02:57:32;;;;;;;1.08;0.93;;;20.90;56.90;;;;;;5041148;28;20021;-69
2023/11/01 03:00:00;;;;;;;0.70;0.60;;;20.90;56.90;;;;;;5042826;28;20053;-69
2023/11/01 03:02:26;;;;;;;1.35;0.68;;;20.90;56.90;;;;;;5039255;28;20484;-69
2023/11/01 03:04:52;;;;;;;0.88;0.70;;;20.90;56.90;;;;;;5042390;28;20029;-70
2023/11/01 03:07:17;;;;;;;0.60;0.60;;;20.90;56.90;;;;;;5041691;28;20039;-69
2023/11/01 03:09:43;;;;;;;0.93;0.60;;;20.90;57.00;;;;;;5041465;28;20048;-69
2023/11/01 03:12:09;;;;;;;0.68;0.60;;;20.90;56.90;;;;;;5040934;28;20026;-68
2023/11/01 03:14:37;;;;;;;0.80;0.80;;;20.90;57.00;;;;;;5039733;28;20454;-69
2023/11/01 03:17:03;;;;;;;1.17;0.70;;;20.90;56.90;;;;;;5039111;28;20017;-69
2023/11/01 03:19:29;;;;;;;1.13;0.90;;;20.80;56.90;;;;;;5041151;28;20041;-69
2023/11/01 03:21:54;;;;;;;0.70;0.60;;;20.80;56.90;;;;;;5043110;28;20022;-69
2023/11/01 03:24:20;;;;;;;0.57;0.57;;;20.80;56.90;;;;;;5039131;28;20485;-70
2023/11/01 03:26:46;;;;;;;0.85;0.60;;;20.90;56.90;;;;;;5039402;28;20033;-69
2023/11/01 03:29:11;;;;;;;1.05;0.70;;;20.80;56.90;;;;;;5039669;28;20032;-69
2023/11/01 03:31:37;;;;;;;1.00;0.70;;;20.90;56.90;;;;;;5040165;28;20424;-69
2023/11/01 03:34:03;;;;;;;0.70;0.60;;;20.80;56.90;;;;;;5041293;28;20499;-70
2023/11/01 03:36:28;;;;;;;1.67;0.75;;;20.90;57.00;;;;;;5038924;28;20033;-70
2023/11/01 03:38:54;;;;;;;0.70;0.60;;;20.90;57.00;;;;;;5040719;28;20030;-68
2023/11/01 03:41:20;;;;;;;1.00;0.70;;;20.90;57.10;;;;;;5042142;28;20071;-69
2023/11/01 03:43:46;;;;;;;0.70;0.70;;;20.80;56.90;;;;;;5041555;28;20596;-69
2023/11/01 03:46:11;;;;;;;0.50;0.50;;;20.80;57.00;;;;;;5039718;28;20101;-70
2023/11/01 03:48:37;;;;;;;0.70;0.60;;;20.80;56.90;;;;;;5041133;28;20030;-70
2023/11/01 03:51:03;;;;;;;0.50;0.50;;;20.80;57.00;;;;;;5040074;28;20113;-69
2023/11/01 03:53:28;;;;;;;0.80;0.70;;;20.80;56.90;;;;;;5040418;28;20034;-68
2023/11/01 03:55:54;;;;;;;0.70;0.60;;;20.80;56.90;;;;;;5044088;28;20100;-65
2023/11/01 03:58:19;;;;;;;0.93;0.60;;;20.80;57.00;;;;;;5038283;28;20350;-65
2023/11/01 04:00:45;;;;;;;0.75;0.70;;;20.80;56.90;;;;;;5038300;28;20063;-66
2023/11/01 04:03:11;;;;;;;0.90;0.70;;;20.80;57.00;;;;;;5038154;28;20029;-64
2023/11/01 04:05:36;;;;;;;0.50;0.50;;;20.80;57.00;;;;;;5040054;28;20029;-65
2023/11/01 04:08:02;;;;;;;0.52;0.52;;;20.80;57.00;;;;;;5039226;28;20391;-66
2023/11/01 04:10:28;;;;;;;0.80;0.55;;;20.80;57.00;;;;;;5038826;28;20025;-65
2023/11/01 04:12:53;;;;;;;0.80;0.63;;;20.80;57.00;;;;;;5041106;28;20052;-65
2023/11/01 04:15:21;;;;;;;0.65;0.60;;;20.80;57.00;;;;;;5039586;28;20683;-64
2023/11/01 04:17:47;;;;;;;0.65;0.55;;;20.80;57.00;;;;;;5038664;28;20043;-64
2023/11/01 04:20:13;;;;;;;0.80;0.60;;;20.80;57.00;;;;;;5039900;28;20323;-63
2023/11/01 04:22:39;;;;;;;0.70;0.60;;;20.80;57.00;;;;;;5038867;28;20178;-63
2023/11/01 04:25:06;;;;;;;1.13;0.60;;;20.80;57.00;;;;;;5039250;28;20117;-64
2023/11/01 04:27:41;;;;;;;0.80;0.60;;;20.70;57.00;;;;;;5037280;28;20021;-65
2023/11/01 04:30:09;;;;;;;1.00;0.70;;;20.70;57.00;;;;;;5039575;28;20029;-62
2023/11/01 04:32:35;;;;;;;0.60;0.60;;;20.80;57.00;;;;;;5039860;28;20571;-64
2023/11/01 04:35:02;;;;;;;0.73;0.60;;;20.80;57.00;;;;;;5039622;28;20036;-64
2023/11/01 04:37:28;;;;;;;0.90;0.60;;;20.80;57.00;;;;;;5038661;28;20441;-64
2023/11/01 04:39:54;;;;;;;0.55;0.52;;;20.80;57.00;;;;;;5039678;28;20154;-64
2023/11/01 04:42:19;;;;;;;0.60;0.60;;;20.70;57.00;;;;;;5038106;28;20025;-63
2023/11/01 04:44:45;;;;;;;0.90;0.60;;;20.70;57.00;;;;;;5040273;28;20030;-64
2023/11/01 04:47:12;;;;;;;0.80;0.55;;;20.80;57.00;;;;;;5038606;28;20044;-65
2023/11/01 04:49:38;;;;;;;2.00;0.70;;;20.70;57.00;;;;;;5037072;28;20030;-63
2023/11/01 04:52:07;;;;;;;0.57;0.57;;;20.70;57.00;;;;;;5038687;28;20033;-63
2023/11/01 04:54:35;;;;;;;0.95;0.60;;;20.70;57.00;;;;;;5037624;28;20033;-65
2023/11/01 04:57:01;;;;;;;1.02;0.47;;;20.70;57.00;;;;;;5039678;28;20029;-63
2023/11/01 04:59:31;;;;;;;0.63;0.60;;;20.70;57.00;;;;;;5038330;28;20571;-65
2023/11/01 05:01:57;;;;;;;0.57;0.50;;;20.70;57.00;;;;;;5037437;28;20037;-64
2023/11/01 05:04:23;;;;;;;1.13;0.63;;;20.70;57.00;;;;;;5037568;28;20073;-63
2023/11/01 05:06:53;;;;;;;1.25;0.65;;;20.70;57.00;;;;;;5037911;28;20070;-68
2023/11/01 05:09:18;;;;;;;0.90;0.60;;;20.70;57.00;;;;;;5040337;28;20033;-68
2023/11/01 05:11:47;;;;;;;0.70;0.60;;;20.70;57.00;;;;;;5038392;28;20565;-68
2023/11/01 05:14:13;;;;;;;0.65;0.63;;;20.70;57.00;;;;;;5039232;28;20903;-68
2023/11/01 05:16:39;;;;;;;0.80;0.70;;;20.70;57.00;;;;;;5039343;28;20116;-68
2023/11/01 05:19:08;;;;;;;0.82;0.50;;;20.70;57.00;;;;;;5037369;28;20029;-67
2023/11/01 05:21:35;;;;;;;0.82;0.60;;;20.70;57.00;;;;;;5039763;28;20112;-67
2023/11/01 05:24:01;;;;;;;0.75;0.50;;;20.70;57.00;;;;;;5039289;28;20044;-68
2023/11/01 05:26:29;;;;;;;0.70;0.57;;;20.70;57.00;;;;;;5040072;28;20025;-69
2023/11/01 05:28:56;;;;;;;0.52;0.50;;;20.70;57.00;;;;;;5039491;28;20022;-69
2023/11/01 05:31:22;;;;;;;0.65;0.60;;;20.70;57.00;;;;;;5040700;28;20032;-69
2023/11/01 05:33:47;;;;;;;0.50;0.50;;;20.70;57.00;;;;;;5037494;28;20457;-69
2023/11/01 05:36:14;;;;;;;1.02;0.60;;;20.70;57.00;;;;;;5038383;28;20025;-70
2023/11/01 05:38:40;;;;;;;1.05;0.60;;;20.70;57.00;;;;;;5037354;28;20041;-69
2023/11/01 05:41:08;;;;;;;0.68;0.50;;;20.70;57.00;;;;;;5037185;28;20033;-69
2023/11/01 05:43:35;;;;;;;0.77;0.52;;;20.70;57.00;;;;;;5040312;28;20026;-69
2023/11/01 05:46:01;;;;;;;0.77;0.60;;;20.70;57.00;;;;;;5039054;28;20033;-70
2023/11/01 05:48:27;;;;;;;0.60;0.50;;;20.70;57.00;;;;;;5037208;28;20013;-69
2023/11/01 05:50:53;;;;;;;0.70;0.50;;;20.70;57.00;;;;;;5036789;28;20033;-70
2023/11/01 05:53:18;;;;;;;0.50;0.50;;;20.70;57.00;;;;;;5037277;28;20040;-70
2023/11/01 05:55:44;;;;;;;0.70;0.60;;;20.70;57.00;;;;;;5038876;28;20029;-69
2023/11/01 05:58:11;;;;;;;0.70;0.60;;;20.70;57.00;;;;;;5039733;28;20047;-69
2023/11/01 06:00:38;;;;;;;0.40;0.40;;;20.70;57.00;;;;;;5037557;28;20033;-69
2023/11/01 06:03:07;;;;;;;0.50;0.50;;;20.70;57.00;;;;;;5036056;28;20119;-68
2023/11/01 06:05:35;;;;;;;0.45;0.45;;;20.70;57.00;;;;;;5037734;28;20955;-69
2023/11/01 06:08:01;;;;;;;0.70;0.60;;;20.70;57.00;;;;;;5038400;28;20084;-69
2023/11/01 06:10:27;;;;;;;0.60;0.50;;;20.70;57.00;;;;;;5042816;28;20542;-69
2023/11/01 06:12:53;;;;;;;0.77;0.60;;;20.70;57.00;;;;;;5043450;28;20029;-69
2023/11/01 06:15:18;;;;;;;0.82;0.60;;;20.70;57.00;;;;;;5041781;28;20029;-65
2023/11/01 06:17:44;;;;;;;0.93;0.65;;;20.70;57.00;;;;;;5041876;28;20082;-69
2023/11/01 06:20:10;;;;;;;0.88;0.60;;;20.70;57.00;;;;;;5040426;28;20029;-70
2023/11/01 06:22:36;;;;;;;0.90;0.57;;;20.60;57.00;;;;;;5041368;28;20033;-69
2023/11/01 06:25:02;;;;;;;0.73;0.60;;;20.70;57.00;;;;;;5042367;28;20706;-70
2023/11/01 06:27:28;;;;;;;0.60;0.47;;;20.70;57.00;;;;;;5042059;28;20026;-68
2023/11/01 06:29:54;;;;;;;0.63;0.52;;;20.60;57.00;;;;;;5042815;28;20143;-69
2023/11/01 06:32:19;;;;;;;0.50;0.50;;;20.70;57.00;;;;;;5043377;28;20025;-69
2023/11/01 06:34:45;;;;;;;0.70;0.60;;;20.60;57.00;;;;;;5041457;28;20026;-69
2023/11/01 06:37:11;;;;;;;0.65;0.50;;;20.60;57.00;;;;;;5041274;28;20021;-65
2023/11/01 06:39:36;;;;;;;0.60;0.60;;;20.60;57.00;;;;;;5041340;28;20032;-64
2023/11/01 06:42:02;;;;;;;0.45;0.45;;;20.60;57.00;;;;;;5041585;28;20029;-65
2023/11/01 06:44:28;;;;;;;0.47;0.45;;;20.60;57.00;;;;;;5041663;28;20022;-64
2023/11/01 06:46:54;;;;;;;0.60;0.60;;;20.60;57.00;;;;;;5040094;28;20025;-63
2023/11/01 06:49:20;;;;;;;0.60;0.50;;;20.60;57.10;;;;;;5039610;28;20037;-64
2023/11/01 06:51:46;;;;;;;0.60;0.52;;;20.60;57.00;;;;;;5042400;28;20037;-65
2023/11/01 06:54:11;;;;;;;0.40;0.40;;;20.60;57.00;;;;;;5042857;28;20350;-64
2023/11/01 06:56:44;;;;;;;0.65;0.50;;;20.60;57.00;;;;;;5041161;28;20055;-65
2023/11/01 06:59:09;;;;;;;0.63;0.50;;;20.60;57.10;;;;;;5041356;28;20089;-65
2023/11/01 07:01:35;;;;;;;0.55;0.50;;;20.60;57.10;;;;;;5042206;28;20120;-64
2023/11/01 07:04:01;;;;;;;0.50;0.50;;;20.60;57.00;;;;;;5039445;28;20020;-65
2023/11/01 07:06:27;;;;;;;0.47;0.45;;;20.60;57.00;;;;;;5041366;28;20036;-64
2023/11/01 07:08:52;;;;;;;0.52;0.50;;;20.60;57.00;;;;;;5041130;28;20141;-64
2023/11/01 07:11:19;;;;;;;0.55;0.50;;;20.60;57.00;;;;;;5042035;28;20342;-65
2023/11/01 07:13:44;;;;;;;0.60;0.60;;;20.60;57.10;;;;;;5040139;28;20496;-64
2023/11/01 07:16:10;;;;;;;0.50;0.50;;;20.60;57.10;;;;;;5040511;28;20108;-65
2023/11/01 07:18:40;;;;;;;0.47;0.47;;;20.60;57.10;;;;;;5041832;28;20382;-64
2023/11/01 07:21:05;;;;;;;0.77;0.60;;;20.60;57.10;;;;;;5039982;28;20061;-65
2023/11/01 07:23:32;;;;;;;0.50;0.50;;;20.60;57.10;;;;;;5041654;28;20060;-64
2023/11/01 07:25:58;;;;;;;0.47;0.45;;;20.60;57.10;;;;;;5038686;28;20021;-65
2023/11/01 07:28:23;;;;;;;0.63;0.55;;;20.50;57.10;;;;;;5039578;28;20488;-64
2023/11/01 07:30:49;;;;;;;0.50;0.50;;;20.60;57.10;;;;;;5039835;28;20131;-64
2023/11/01 07:33:15;;;;;;;0.60;0.55;;;20.50;57.10;;;;;;5040896;28;20028;-64
2023/11/01 07:35:40;;;;;;;0.65;0.50;;;20.50;57.00;;;;;;5040094;28;20025;-64
2023/11/01 07:38:06;;;;;;;0.82;0.63;;;20.50;57.10;;;;;;5040778;28;20489;-65
2023/11/01 07:40:31;;;;;;;0.45;0.45;;;20.50;57.10;;;;;;5040600;28;20025;-65
2023/11/01 07:42:57;;;;;;;0.50;0.50;;;20.50;57.10;;;;;;5040064;28;20041;-65
2023/11/01 07:45:22;;;;;;;0.50;0.50;;;20.50;57.10;;;;;;5041455;28;20028;-69
2023/11/01 07:47:48;;;;;;;0.40;0.40;;;20.50;57.10;;;;;;5041009;28;20033;-68
2023/11/01 07:50:14;;;;;;;0.63;0.45;;;20.50;57.10;;;;;;5038891;28;20393;-67
2023/11/01 07:52:40;;;;;;;0.75;0.47;;;20.50;57.10;;;;;;5039703;28;20219;-67
2023/11/01 07:55:06;;;;;;;0.63;0.50;;;20.50;57.10;;;;;;5038952;28;20165;-67
2023/11/01 07:57:32;;;;;;;0.52;0.52;;;20.50;57.10;;;;;;5039832;28;20889;-67
2023/11/01 07:59:57;;;;;;;0.70;0.52;;;20.50;57.10;;;;;;5037581;28;20036;-67
2023/11/01 08:02:24;;;;;;;0.40;0.40;;;20.50;57.10;;;;;;5039772;28;20037;-68
2023/11/01 08:04:49;;;;;;;0.60;0.50;;;20.50;57.10;;;;;;5037983;28;20037;-67
2023/11/01 08:07:15;;;;;;;0.40;0.40;;;20.50;57.10;;;;;;5039254;28;20080;-67
2023/11/01 08:09:41;;;;;;;0.47;0.47;;;20.50;57.10;;;;;;5040553;28;20056;-68
2023/11/01 08:12:07;;;;;;;0.80;0.60;;;20.50;57.10;;;;;;5039534;28;20025;-67
2023/11/01 08:14:33;;;;;;;0.75;0.55;;;20.50;57.10;;;;;;5038940;28;20024;-67
2023/11/01 08:16:58;;;;;;;0.50;0.50;;;20.50;57.10;;;;;;5041354;28;20021;-67
2023/11/01 08:19:24;;;;;;;0.60;0.50;;;20.50;57.10;;;;;;5038153;28;20029;-68
2023/11/01 08:21:49;;;;;;;0.55;0.55;;;20.50;57.10;;;;;;5040055;28;20056;-68
2023/11/01 08:24:15;;;;;;;0.50;0.50;;;20.50;57.20;;;;;;5039138;28;20030;-68
2023/11/01 08:26:41;;;;;;;0.60;0.50;;;20.50;57.20;;;;;;5038354;28;20128;-67
2023/11/01 08:29:09;;;;;;;0.52;0.45;;;20.50;57.20;;;;;;5039761;28;20030;-68
2023/11/01 08:31:35;;;;;;;0.40;0.40;;;20.50;57.20;;;;;;5036128;28;20018;-68
2023/11/01 08:34:00;;;;;;;0.65;0.50;;;20.50;57.20;;;;;;5040128;28;20078;-68
2023/11/01 08:36:26;;;;;;;0.40;0.40;;;20.50;57.20;;;;;;5038420;28;20075;-63
2023/11/01 08:38:52;;;;;;;1.00;0.57;;;20.50;57.20;;;;;;5039844;28;20017;-63
2023/11/01 08:41:18;;;;;;;0.50;0.50;;;20.50;57.30;;;;;;5041119;28;20029;-64
2023/11/01 08:43:43;;;;;;;0.60;0.50;;;20.50;57.20;;;;;;5038219;28;20037;-64
2023/11/01 08:46:11;;;;;;;0.50;0.50;;;20.50;57.30;;;;;;5040194;28;20025;-63
2023/11/01 08:48:37;;;;;;;0.80;0.60;;;20.50;57.30;;;;;;5040848;28;20052;-64
2023/11/01 08:51:03;;;;;;;1.60;0.50;;;20.50;57.30;;;;;;5039139;28;20071;-63
2023/11/01 08:53:29;;;;;;;0.73;0.52;;;20.50;57.30;;;;;;5039910;28;20572;-64
2023/11/01 08:55:54;;;;;;;0.52;0.40;;;20.40;57.20;;;;;;5040244;28;20104;-64
2023/11/01 08:58:20;;;;;;;0.73;0.47;;;20.40;57.30;;;;;;5038126;28;20473;-64
2023/11/01 09:00:46;;;;;;;0.40;0.40;;;20.40;57.30;;;;;;5040681;28;20029;-66
2023/11/01 09:03:13;;;;;;;0.60;0.52;;;20.40;57.30;;;;;;5038935;28;20029;-65
2023/11/01 09:05:39;;;;;;;0.50;0.50;;;20.40;57.30;;;;;;5039384;28;20028;-65
2023/11/01 09:08:04;;;;;;;0.80;0.60;;;20.50;57.30;;;;;;5040397;28;20055;-65
2023/11/01 09:10:30;;;;;;;0.40;0.40;;;20.40;57.30;;;;;;5039464;28;20079;-65
2023/11/01 09:12:56;;;;;;;0.55;0.40;;;20.50;57.40;;;;;;5037968;28;20037;-64
2023/11/01 09:15:22;;;;;;;0.40;0.40;;;20.50;57.40;;;;;;5039048;28;20091;-64
2023/11/01 09:17:48;;;;;;;0.50;0.50;;;20.50;57.40;;;;;;5040956;28;20807;-64
2023/11/01 09:20:14;;;;;;;0.50;0.50;;;20.50;57.40;;;;;;5035852;28;20017;-66
2023/11/01 09:22:40;;;;;;;1.27;0.60;;;20.50;57.40;;;;;;5036783;28;20374;-64
2023/11/01 09:25:06;;;;;;;0.73;0.60;;;20.50;57.40;;;;;;5037605;28;20037;-64
2023/11/01 09:27:32;;;;;;;0.40;0.40;;;20.50;57.40;;;;;;5036909;28;20034;-65
2023/11/01 09:29:57;;;;;;;0.85;0.60;;;20.50;57.40;;;;;;5035700;28;20499;-65
2023/11/01 09:32:23;;;;;;;0.82;0.52;;;20.50;57.40;;;;;;5038264;28;20100;-65
2023/11/01 09:34:49;;;;;;;0.55;0.55;;;20.50;57.40;;;;;;5039076;28;20025;-65
2023/11/01 09:37:14;;;;;;;0.50;0.50;;;20.50;57.40;;;;;;5038139;28;20021;-66
2023/11/01 09:39:40;;;;;;;0.50;0.50;;;20.50;57.40;;;;;;5038673;28;20527;-66
2023/11/01 09:42:21;;;;;;;0.93;0.50;;;20.50;57.30;;;;;;5039248;28;20118;-65
2023/11/01 09:44:55;;;;;;;0.68;0.60;;;20.50;57.40;;;;;;5039257;28;20025;-65
2023/11/01 09:47:23;;;;;;;0.47;0.40;;;20.50;57.40;;;;;;5038323;28;20100;-64
2023/11/01 09:49:50;;;;;;;0.50;0.50;;;20.50;57.40;;;;;;5037864;28;20452;-65
2023/11/01 09:52:16;;;;;;;0.50;0.50;;;20.50;57.40;;;;;;5037185;28;20618;-65
2023/11/01 09:54:42;;;;;;;0.68;0.50;;;20.50;57.30;;;;;;5036582;28;20036;-64
2023/11/01 09:57:10;;;;;;;0.55;0.55;;;20.50;57.30;;;;;;5038946;28;20037;-65
2023/11/01 09:59:38;;;;;;;0.60;0.50;;;20.50;57.40;;;;;;5039524;28;20543;-65
2023/11/01 10:02:04;;;;;;;0.60;0.52;;;20.50;57.40;;;;;;5037982;28;20033;-65
2023/11/01 10:04:30;;;;;;;0.60;0.50;;;20.50;57.40;;;;;;5038917;28;20044;-65
2023/11/01 10:06:56;;;;;;;0.60;0.50;;;20.50;57.40;;;;;;5037058;28;20075;-68
2023/11/01 10:09:21;;;;;;;0.70;0.70;;;20.50;57.40;;;;;;5036992;28;20032;-68
2023/11/01 10:11:47;;;;;;;0.32;0.32;;;20.50;57.40;;;;;;5039325;28;20512;-68
2023/11/01 10:14:25;;;;;;;0.57;0.40;;;20.50;57.40;;;;;;5039865;28;20422;-68
2023/11/01 10:16:51;;;;;;;0.85;0.50;;;20.50;57.40;;;;;;5037520;28;20032;-67
2023/11/01 10:19:17;;;;;;;0.40;0.40;;;20.50;57.40;;;;;;5038431;28;20025;-68
2023/11/01 10:21:42;;;;;;;0.40;0.40;;;20.50;57.40;;;;;;5037917;28;20037;-68
2023/11/01 10:24:08;;;;;;;0.40;0.40;;;20.50;57.40;;;;;;5038020;28;20156;-68
2023/11/01 10:26:35;;;;;;;0.85;0.45;;;20.50;57.40;;;;;;5038446;28;20036;-67
2023/11/01 10:29:02;;;;;;;0.65;0.50;;;20.50;57.40;;;;;;5037289;28;20219;-67
2023/11/01 10:31:28;;;;;;;0.70;0.40;;;20.50;57.40;;;;;;5036909;28;20029;-67
2023/11/01 10:33:54;;;;;;;0.60;0.57;;;20.50;57.40;;;;;;5039617;28;20025;-67
2023/11/01 10:36:20;;;;;;;0.70;0.60;;;20.50;57.40;;;;;;5037476;28;20113;-68
2023/11/01 10:38:47;;;;;;;0.57;0.40;;;20.50;57.40;;;;;;5038113;28;20345;-67
2023/11/01 10:41:15;;;;;;;0.70;0.50;;;20.50;57.40;;;;;;5052609;28;20055;-68
2023/11/01 10:43:40;;;;;;;0.52;0.50;;;20.50;57.40;;;;;;5037268;28;20131;-67
2023/11/01 10:46:07;;;;;;;0.40;0.40;;;20.50;57.40;;;;;;5037921;28;20039;-67
2023/11/01 10:48:33;;;;;;;0.50;0.50;;;20.50;57.40;;;;;;5037507;28;20052;-67
2023/11/01 10:50:59;;;;;;;0.40;0.40;;;20.50;57.40;;;;;;5037041;28;20084;-68
2023/11/01 10:53:25;;;;;;;0.45;0.40;;;20.50;57.40;;;;;;5036914;28;20485;-67
2023/11/01 10:56:03;;;;;;;0.50;0.50;;;20.50;57.40;;;;;;5038377;28;20061;-66
2023/11/01 10:58:34;;;;;;;0.65;0.50;;;20.50;57.40;;;;;;5040819;28;20384;-65
2023/11/01 11:01:24;;;;;;;0.50;0.50;;;20.50;57.50;;;;;;5040721;28;20020;-65
2023/11/01 11:03:55;;;;;;;;;;;20.50;57.40;;;;;;5041437;28;20476;-64
2023/11/01 11:06:30;;;;;;;0.40;0.40;;;20.50;57.40;;;;;;5040109;28;19916;-64
2023/11/01 11:09:24;;;;;;;0.73;0.60;;;20.50;57.40;;;;;;5041892;28;20369;-65
2023/11/01 11:12:19;;;;;;;0.70;0.60;;;20.50;57.40;;;;;;5042687;28;20449;-64
2023/11/01 11:14:47;;;;;;;0.70;0.52;;;20.50;57.40;;;;;;5039839;28;20029;-65
2023/11/01 11:17:15;;;;;;;0.50;0.50;;;20.50;57.40;;;;;;5055365;28;20396;-64
2023/11/01 11:20:05;;;;;;;0.43;0.43;;;20.50;57.50;;;;;;5040775;28;20044;-65
2023/11/01 11:23:02;;;;;;;0.60;0.50;;;20.50;57.50;;;;;;5046998;28;20030;-64
2023/11/01 11:25:45;;;;;;;1.02;0.70;;;20.50;57.40;;;;;;5043392;28;20025;-64
2023/11/01 11:28:12;;;;;;;0.45;0.45;;;20.50;57.40;;;;;;5040942;28;20025;-65
2023/11/01 11:31:01;;;;;;;0.82;0.60;;;20.50;57.40;;;;;;5041014;28;20029;-65
2023/11/01 11:33:27;;;;;;;0.70;0.70;;;20.50;57.50;;;;;;5040086;28;20095;-65
2023/11/01 11:36:12;;;;;;;0.73;0.70;;;20.50;57.50;;;;;;5039014;28;20428;-64
2023/11/01 11:38:46;;;;;;;0.90;0.80;;;20.50;57.50;;;;;;5041594;28;20021;-65
2023/11/01 11:41:26;;;;;;;1.02;0.70;;;20.50;57.40;;;;;;5040767;28;20029;-64
2023/11/01 11:44:04;;;;;;;1.42;0.93;;;20.50;57.50;;;;;;5044105;28;20021;-65
2023/11/01 11:46:36;;;;;;;1.17;1.00;;;20.50;57.50;;;;;;5038785;28;20976;-64
2023/11/01 11:49:30;;;;;;;1.48;0.90;;;20.50;57.50;;;;;;5038489;28;20029;-65
2023/11/01 11:51:56;;;;;;;1.27;1.05;;;20.50;57.50;;;;;;5039279;28;20025;-65
2023/11/01 11:54:23;;;;;;;1.92;1.25;;;20.50;57.50;;;;;;5040499;28;20931;-64
2023/11/01 11:56:56;;;;;;;1.63;1.20;;;20.50;57.50;;;;;;5041164;28;20516;-65
2023/11/01 11:59:24;;;;;;;2.45;1.40;;;20.50;57.50;;;;;;5039402;28;20026;-65
2023/11/01 12:01:52;;;;;;;1.77;1.30;;;20.60;57.50;;;;;;5040986;28;20524;-64
2023/11/01 12:04:18;;;;;;;1.90;1.30;;;20.60;57.50;;;;;;5038796;28;20531;-65
2023/11/01 12:06:50;;;;;;;2.03;1.40;;;20.50;57.50;;;;;;5039375;28;20064;-65
2023/11/01 12:09:19;;;;;;;2.58;1.40;;;20.60;57.50;;;;;;5037641;28;20037;-65
2023/11/01 12:11:53;;;;;;;2.60;1.60;;;20.50;57.50;;;;;;5039707;28;20355;-65
2023/11/01 12:14:26;;;;;;;2.00;1.40;;;20.60;57.50;;;;;;5039784;28;20071;-65
2023/11/01 12:16:53;;;;;;;2.55;1.70;;;20.60;57.60;;;;;;5039024;28;20021;-65
2023/11/01 12:19:20;;;;;;;2.10;1.60;;;20.60;57.50;;;;;;5040745;28;20587;-65
2023/11/01 12:21:49;;;;;;;2.88;1.60;;;20.60;57.50;;;;;;5037607;28;20028;-65
2023/11/01 12:24:16;;;;;;;;;;;20.60;57.60;;;;;;5042469;28;20473;-65
2023/11/01 12:27:06;;;;;;;2.65;1.77;;;20.60;57.50;;;;;;5042143;28;19905;-64
2023/11/01 12:29:45;;;;;;;2.10;1.55;;;20.60;57.50;;;;;;5039578;28;20481;-65
2023/11/01 12:32:33;;;;;;;2.17;1.50;;;20.60;57.50;;;;;;5040995;28;20103;-65
2023/11/01 12:35:04;;;;;;;2.67;1.60;;;20.60;57.50;;;;;;5040128;28;20392;-65
2023/11/01 12:37:31;;;;;;;2.17;1.50;;;20.60;57.60;;;;;;5039828;28;20038;-65
2023/11/01 12:40:12;;;;;;;1.90;1.30;;;20.60;57.50;;;;;;5040781;28;20105;-64
2023/11/01 12:42:51;;;;;;;1.80;1.20;;;20.60;57.60;;;;;;5041360;28;20505;-65
2023/11/01 12:45:18;;;;;;;2.65;1.58;;;20.60;57.60;;;;;;5039724;28;20034;-65
2023/11/01 12:47:44;;;;;;;2.60;1.60;;;20.60;57.50;;;;;;5039079;28;20087;-65
2023/11/01 12:50:26;;;;;;;2.10;1.40;;;20.60;57.50;;;;;;5039024;28;20496;-65